Latest Weather Observations for Darwin

IDD60901

Issued at 1:45 pm CST Thursday 24 July 2014 (issued every 10 minutes, with the page automatically refreshed every 10 minutes)

About weather observations | Map of Darwin area stations | Latest observations for Darwin area | Other Formats
Station Details ID: 014015 Name: DARWIN AIRPORT Lat: -12.42 Lon: 130.89 Height: 30.4 m
Data from the previous 72 hours. | See also: Recent months at Darwin
Date/Time
CST
Tmp

°C
App
Tmp
°C
Dew
Point
°C
Rel
Hum
%
Delta-T

°C
Wind Press
QNH
hPa
Press
MSL
hPa
Rain
since
9 am
mm
Dir
 
Spd
km/h
Gust
km/h
Spd
kts
Gust
kts
24/01:30pm 28.8 28.3 17.8 51 7.0 WNW 17 28 9 15 1013.2 - 0.0
24/01:00pm 28.3 27.0 16.8 49 7.2 WNW 19 24 10 13 1013.7 - 0.0
24/12:30pm 28.6 26.3 14.7 42 8.4 W 20 26 11 14 1014.2 - 0.0
24/12:00pm 28.5 29.0 16.6 48 7.4 NE 9 17 5 9 1014.7 1014.5 0.0
24/11:30am 27.2 27.3 16.4 51 6.7 SE 11 15 6 8 1015.4 - 0.0
24/11:00am 26.9 27.0 16.4 52 6.5 ENE 11 17 6 9 1015.6 - 0.0
24/10:30am 25.9 25.1 16.1 54 6.0 E 15 19 8 10 1015.7 - 0.0
24/10:00am 25.0 24.0 16.7 60 5.1 ESE 17 24 9 13 1015.8 - 0.0
24/09:30am 23.7 22.5 17.1 66 4.1 ESE 19 26 10 14 1015.7 - 0.0
24/09:00am 22.7 21.5 17.4 72 3.3 E 20 28 11 15 1015.6 1015.4 0.0
24/08:30am 22.1 23.3 19.8 87 1.5 SSE 13 15 7 8 1015.0 - 0.0
24/08:00am 21.1 22.4 19.4 90 1.1 S 11 13 6 7 1014.6 - 0.0
24/07:30am 18.8 19.6 17.3 91 0.9 SSE 9 11 5 6 1014.2 - 0.0
24/07:00am 18.0 18.8 17.2 95 0.5 SSE 9 9 5 5 1013.9 - 0.0
24/06:53am 18.2 18.9 17.0 93 0.7 SE 9 11 5 6 1013.7 - 0.0
24/06:30am 18.4 19.3 17.6 95 0.5 SSE 9 9 5 5 1013.7 - 0.0
24/06:00am 18.1 19.3 17.3 95 0.5 ESE 7 9 4 5 1013.2 1013.0 0.0
24/05:30am 17.8 18.2 17.3 97 0.3 ENE 11 13 6 7 1013.1 - 0.0
24/05:13am 17.5 18.4 16.7 95 0.5 E 7 9 4 5 1013.2 - 0.0
24/05:00am 17.5 18.4 16.7 95 0.5 ESE 7 9 4 5 1013.2 - 0.0
24/04:30am 18.1 19.1 16.8 92 0.8 ESE 7 9 4 5 1013.1 - 0.0
24/04:00am 18.3 19.4 17.1 93 0.7 ESE 7 7 4 4 1013.1 - 0.0
24/03:30am 18.3 19.5 17.3 94 0.6 ESE 7 9 4 5 1013.2 - 0.0
24/03:00am 18.1 19.2 17.1 94 0.6 SE 7 7 4 4 1013.5 1013.3 0.0
24/02:30am 18.3 19.7 17.3 94 0.6 ESE 6 7 3 4 1013.8 - 0.0
24/02:00am 18.6 19.9 17.6 94 0.6 ESE 7 7 4 4 1013.9 - 0.0
24/01:30am 18.1 19.1 16.9 93 0.7 ENE 7 11 4 6 1013.9 - 0.0
24/01:00am 18.9 21.5 17.4 91 0.9 CALM 0 6 0 3 1013.9 - 0.0
24/12:30am 20.1 23.0 18.2 89 1.2 CALM 0 0 0 0 1013.9 - 0.0
24/12:00am 21.0 22.1 18.1 83 1.8 SSW 9 11 5 6 1013.9 1013.7 0.0
 
Date/Time
CST
Tmp

°C
App
Tmp
°C
Dew
Point
°C
Rel
Hum
%
Delta-T

°C
Wind Press
QNH
hPa
Press
MSL
hPa
Rain
since
9 am
mm
Dir
 
Spd
km/h
Gust
km/h
Spd
kts
Gust
kts
23/11:30pm 21.4 22.6 18.2 82 2.0 SSW 9 11 5 6 1013.9 - 0.0
23/11:00pm 21.5 23.6 18.1 81 2.1 NNW 4 9 2 5 1013.9 - 0.0
23/10:30pm 19.7 21.9 17.4 86 1.4 N 2 6 1 3 1013.7 - 0.0
23/10:00pm 20.0 21.4 17.7 86 1.4 N 7 9 4 5 1013.6 - 0.0
23/09:30pm 21.0 22.5 18.1 83 1.8 N 7 11 4 6 1013.4 - 0.0
23/09:00pm 20.8 21.8 17.7 82 1.9 N 9 11 5 6 1013.1 1012.9 0.0
23/08:30pm 22.0 23.3 18.5 80 2.2 N 9 13 5 7 1013.0 - 0.0
23/08:00pm 23.7 25.1 18.6 73 3.2 NW 9 11 5 6 1012.7 - 0.0
23/07:30pm 23.5 24.8 18.4 73 3.2 NW 9 11 5 6 1012.4 - 0.0
23/07:00pm 23.9 24.4 18.4 71 3.5 NW 13 15 7 8 1012.0 - 0.0
23/06:30pm 24.7 24.7 18.2 67 4.1 N 15 19 8 10 1011.7 - 0.0
23/06:00pm 25.8 25.2 17.5 60 5.2 N 17 20 9 11 1011.5 1011.3 0.0
23/05:30pm 26.8 26.1 17.4 56 5.9 N 17 19 9 10 1011.3 - 0.0
23/05:00pm 27.0 26.0 16.5 52 6.5 N 17 22 9 12 1011.2 - 0.0
23/04:30pm 27.1 25.5 16.5 52 6.6 N 20 26 11 14 1011.1 - 0.0
23/04:00pm 28.4 26.4 15.5 45 7.9 N 20 26 11 14 1010.8 - 0.0
23/03:30pm 28.1 26.3 15.5 46 7.7 NNW 19 26 10 14 1010.8 - 0.0
23/03:00pm 30.2 26.9 9.6 27 11.6 NW 17 20 9 11 1011.1 1010.9 0.0
23/02:30pm 29.6 27.2 10.2 30 11.0 NNW 13 17 7 9 1011.6 - 0.0
23/02:00pm 29.6 28.1 11.9 33 10.3 SE 11 17 6 9 1012.0 - 0.0
23/01:30pm 28.5 26.0 13.5 39 8.9 SE 19 24 10 13 1012.8 - 0.0
23/01:00pm 27.6 26.3 13.8 42 8.2 SE 13 22 7 12 1013.3 - 0.0
23/12:30pm 27.7 26.4 13.7 42 8.3 E 13 22 7 12 1013.9 - 0.0
23/12:00pm 26.8 24.5 14.2 46 7.5 ESE 19 26 10 14 1014.6 1014.4 0.0
23/11:30am 26.7 24.2 14.1 46 7.5 ESE 20 32 11 17 1015.1 - 0.0
23/11:00am 26.2 23.3 14.1 47 7.2 ESE 22 30 12 16 1015.5 - 0.0
23/10:30am 25.4 23.2 15.9 55 5.8 E 22 28 12 15 1015.8 - 0.0
23/10:00am 24.4 21.8 16.0 59 5.1 E 24 32 13 17 1016.1 - 0.0
23/09:30am 23.8 22.7 17.7 68 3.8 E 20 30 11 16 1016.2 - 0.0
23/09:00am 22.6 22.7 18.3 76 2.7 ESE 15 19 8 10 1016.0 1015.8 0.0
23/08:30am 21.6 22.0 18.1 80 2.2 SE 13 17 7 9 1015.7 - 0.0
23/08:00am 20.5 20.9 18.1 86 1.5 SSE 13 17 7 9 1015.5 - 0.0
23/07:30am 19.5 20.3 17.4 88 1.3 S 9 13 5 7 1015.2 - 0.0
23/07:00am 19.2 19.8 16.9 86 1.4 SSE 9 13 5 7 1014.8 - 0.0
23/06:30am 19.0 19.6 16.8 87 1.3 SE 9 11 5 6 1014.6 - 0.0
23/06:00am 19.1 19.8 17.0 88 1.3 SE 9 11 5 6 1014.2 1014.0 0.0
23/05:30am 18.8 19.3 16.6 87 1.3 SE 9 9 5 5 1014.2 - 0.0
23/05:00am 19.1 19.7 16.8 86 1.4 SSE 9 13 5 7 1014.1 - 0.0
23/04:30am 19.4 19.2 16.8 85 1.6 SE 13 17 7 9 1013.9 - 0.0
23/04:00am 19.6 19.9 17.8 89 1.1 SSE 13 15 7 8 1013.8 - 0.0
23/03:30am 20.4 21.0 18.6 89 1.1 SSE 13 17 7 9 1013.8 - 0.0
23/03:00am 20.7 21.0 18.8 89 1.2 S 15 19 8 10 1013.9 1013.7 0.0
23/02:30am 20.7 21.0 18.0 84 1.7 S 13 15 7 8 1014.0 - 0.0
23/02:00am 20.4 21.0 17.8 85 1.6 S 11 13 6 7 1014.2 - 0.0
23/01:30am 20.6 22.0 17.8 84 1.7 SSE 7 9 4 5 1014.4 - 0.0
23/01:00am 21.3 22.1 18.1 82 2.0 NNE 11 15 6 8 1014.4 - 0.0
23/12:30am 21.0 21.2 17.6 81 2.1 NNE 13 17 7 9 1014.5 - 0.0
23/12:00am 21.3 21.5 17.6 79 2.3 NE 13 17 7 9 1014.6 1014.4 0.0
 
Date/Time
CST
Tmp

°C
App
Tmp
°C
Dew
Point
°C
Rel
Hum
%
Delta-T

°C
Wind Press
QNH
hPa
Press
MSL
hPa
Rain
since
9 am
mm
Dir
 
Spd
km/h
Gust
km/h
Spd
kts
Gust
kts
22/11:30pm 21.8 21.5 17.4 76 2.7 NNE 15 19 8 10 1014.6 - 0.0
22/11:00pm 21.4 21.2 16.8 75 2.8 NNE 13 17 7 9 1014.6 - 0.0
22/10:30pm 21.8 21.1 16.5 72 3.2 NNE 15 19 8 10 1014.7 - 0.0
22/10:00pm 22.7 21.0 15.7 64 4.2 NNE 19 26 10 14 1014.6 - 0.0
22/09:30pm 22.6 20.6 15.6 64 4.2 NE 20 28 11 15 1014.3 - 0.0
22/09:00pm 22.2 21.2 16.6 70 3.4 NE 17 20 9 11 1014.0 1013.8 0.0
22/08:30pm 22.3 21.2 16.4 69 3.6 NNE 17 20 9 11 1013.7 - 0.0
22/08:00pm 22.9 21.2 15.8 64 4.3 NNE 19 24 10 13 1013.3 - 0.0
22/07:30pm 23.4 21.7 14.6 57 5.2 NNE 17 20 9 11 1013.0 - 0.0
22/07:00pm 24.3 22.4 14.3 53 5.9 NNE 17 22 9 12 1012.7 - 0.0
22/06:30pm 25.4 23.2 14.5 51 6.5 NNE 19 24 10 13 1012.1 - 0.0
22/06:00pm 26.8 23.7 14.5 46 7.4 NNE 24 32 13 17 1011.8 1011.6 0.0
22/05:30pm 29.5 25.4 6.4 23 12.3 E 17 20 9 11 1011.6 - 0.0
22/05:00pm 29.7 24.7 4.5 20 13.0 E 20 30 11 16 1011.4 - 0.0
22/04:30pm 30.3 24.8 5.7 21 13.0 E 24 32 13 17 1011.3 - 0.0
22/04:00pm 30.7 24.7 3.4 17 13.9 E 24 33 13 18 1011.4 - 0.0
22/03:30pm 30.5 24.4 4.8 19 13.4 ENE 26 37 14 20 1011.6 - 0.0
22/03:00pm 31.3 26.7 5.7 20 13.6 ESE 19 24 10 13 1011.8 1011.6 0.0
22/02:30pm 30.5 25.3 3.7 18 13.7 ESE 20 32 11 17 1012.2 - 0.0
22/02:00pm 30.2 24.7 6.1 22 12.8 E 24 33 13 18 1012.7 - 0.0
22/01:30pm 29.5 22.6 4.4 20 12.9 E 30 39 16 21 1013.5 - 0.0
22/01:00pm 30.2 23.7 6.4 22 12.7 ESE 30 39 16 21 1014.1 - 0.0
22/12:30pm 28.4 23.4 8.2 28 11.0 E 24 37 13 20 1014.8 - 0.0
22/12:00pm 27.7 22.8 10.0 33 9.9 ESE 26 33 14 18 1015.5 1015.3 0.0
22/11:30am 27.8 23.1 12.1 37 9.1 E 28 35 15 19 1016.0 - 0.0
22/11:00am 26.7 23.5 11.9 39 8.5 E 20 26 11 14 1016.5 - 0.0
22/10:30am 25.5 22.9 15.0 52 6.3 E 22 30 12 16 1016.9 - 0.0
22/10:00am 24.6 22.5 15.1 55 5.7 E 20 28 11 15 1017.0 - 0.0
22/09:30am 24.4 22.4 15.6 58 5.3 E 20 30 11 16 1017.2 - 0.0
22/09:00am 22.9 22.4 17.9 73 3.1 E 17 20 9 11 1017.0 1016.9 0.0
22/08:30am 22.3 22.8 18.3 78 2.5 ESE 13 15 7 8 1016.8 - 0.0
22/08:00am 20.8 22.0 18.2 85 1.6 SE 9 11 5 6 1016.5 - 0.0
22/07:50am 20.0 21.2 18.2 89 1.1 ESE 9 11 5 6 1016.3 - 0.0
22/07:30am 17.9 18.9 16.9 94 0.6 SE 7 9 4 5 1016.0 - 0.0
22/07:00am 17.8 18.7 16.6 93 0.7 SE 7 9 4 5 1015.8 - 0.0
22/06:46am 17.9 18.5 16.7 93 0.7 SE 9 9 5 5 1015.7 - 0.0
22/06:30am 17.9 18.8 16.6 92 0.8 SE 7 7 4 4 1015.5 - 0.0
22/06:00am 17.8 18.7 16.5 92 0.8 ESE 7 7 4 4 1015.3 1015.1 0.0
22/05:30am 17.8 18.6 16.3 91 0.9 SE 7 7 4 4 1015.1 - 0.0
22/05:00am 17.7 18.1 16.2 91 0.9 SE 9 9 5 5 1015.1 - 0.0
22/04:30am 18.2 19.1 16.5 90 1.0 SE 7 7 4 4 1014.9 - 0.0
22/04:00am 18.0 18.8 16.3 90 1.0 SE 7 7 4 4 1014.8 - 0.0
22/03:30am 18.0 18.8 16.3 90 1.0 SE 7 7 4 4 1014.9 - 0.0
22/03:00am 18.2 18.9 16.2 88 1.2 SE 7 7 4 4 1015.0 1014.8 0.0
22/02:30am 18.6 19.5 16.6 88 1.2 ESE 7 9 4 5 1015.3 - 0.0
22/02:00am 18.7 19.1 16.4 86 1.4 E 9 11 5 6 1015.3 - 0.0
22/01:30am 18.9 19.0 16.6 86 1.4 E 11 11 6 6 1015.3 - 0.0
22/01:00am 19.0 19.5 16.5 85 1.5 ESE 9 11 5 6 1015.4 - 0.0
22/12:30am 19.1 19.9 16.4 84 1.6 E 7 9 4 5 1015.5 - 0.0
22/12:00am 19.8 20.7 16.5 81 2.0 E 7 9 4 5 1015.6 1015.4 0.0
 
Date/Time
CST
Tmp

°C
App
Tmp
°C
Dew
Point
°C
Rel
Hum
%
Delta-T

°C
Wind Press
QNH
hPa
Press
MSL
hPa
Rain
since
9 am
mm
Dir
 
Spd
km/h
Gust
km/h
Spd
kts
Gust
kts
21/11:30pm 19.8 20.9 16.7 82 1.9 ESE 6 9 3 5 1015.8 - 0.0
21/11:00pm 19.8 20.7 16.7 82 1.9 ESE 7 9 4 5 1015.7 - 0.0
21/10:30pm 20.3 20.7 16.3 78 2.4 ESE 9 9 5 5 1015.7 - 0.0
21/10:00pm 19.8 21.9 16.3 80 2.1 CALM 0 0 0 0 1015.7 - 0.0
21/09:30pm 20.2 22.4 16.4 79 2.3 CALM 0 0 0 0 1015.6 - 0.0
21/09:00pm 21.3 23.4 16.3 73 3.0 CALM 0 0 0 0 1015.3 1015.1 0.0
21/08:30pm 21.9 23.0 16.6 72 3.2 N 6 7 3 4 1015.0 - 0.0
21/08:00pm 23.7 24.2 16.5 64 4.4 N 9 11 5 6 1014.7 - 0.0
21/07:30pm 24.3 24.7 16.3 61 4.9 WNW 9 11 5 6 1014.4 - 0.0
21/07:00pm 24.6 24.7 16.4 60 5.0 N 11 15 6 8 1013.8 - 0.0
21/06:30pm 25.4 24.7 16.3 57 5.6 N 15 24 8 13 1013.2 - 0.0
21/06:00pm 26.3 23.9 15.4 51 6.6 N 22 28 12 15 1012.8 1012.6 0.0
21/05:30pm 27.4 25.4 15.6 48 7.2 N 20 24 11 13 1012.4 - 0.0
21/05:00pm 28.0 26.1 15.8 47 7.5 N 20 24 11 13 1012.2 - 0.0
21/04:30pm 28.7 26.6 15.3 44 8.2 N 20 24 11 13 1012.2 - 0.0
21/04:00pm 29.3 26.9 13.8 38 9.3 N 19 26 10 14 1012.3 - 0.0
21/03:30pm 29.1 26.5 13.9 39 9.1 NNW 20 26 11 14 1012.3 - 0.0
21/03:00pm 29.7 27.3 14.3 39 9.3 NNW 20 26 11 14 1012.5 1012.3 0.0
21/02:30pm 30.9 27.7 8.6 25 12.4 NW 15 22 8 12 1012.8 - 0.0
21/02:00pm 30.9 28.4 8.0 24 12.6 SE 11 28 6 15 1013.3 - 0.0

Latest Capital City Observations: Canberra | Sydney | Melbourne | Brisbane | Adelaide | Perth | Hobart | Darwin

Other Formats:

Comma delimited format used in spreadsheet applications
http://www.bom.gov.au/fwo/IDD60901/IDD60901.94120.axf

JavaScript Object Notation format (JSON) in row-major order
http://www.bom.gov.au/fwo/IDD60901/IDD60901.94120.json